sensor_id;sensor_type;location;lat;lon;timestamp;P1;P2;P0
26185;PMS7003;20067;48.764;9.176;2023-10-19T00:02:08;43.67;42.67;32.33
26185;PMS7003;20067;48.764;9.176;2023-10-19T00:04:35;49.67;44.67;32.33
26185;PMS7003;20067;48.764;9.176;2023-10-19T00:07:02;53.67;47.00;34.00
26185;PMS7003;20067;48.764;9.176;2023-10-19T00:09:29;49.00;43.33;31.67
26185;PMS7003;20067;48.764;9.176;2023-10-19T00:12:02;47.33;43.00;33.00
26185;PMS7003;20067;48.764;9.176;2023-10-19T00:14:28;48.33;43.67;33.00
26185;PMS7003;20067;48.764;9.176;2023-10-19T00:16:54;51.00;45.33;33.67
26185;PMS7003;20067;48.764;9.176;2023-10-19T00:19:25;45.67;43.33;31.67
26185;PMS7003;20067;48.764;9.176;2023-10-19T00:21:53;47.67;43.67;33.00
26185;PMS7003;20067;48.764;9.176;2023-10-19T00:24:33;47.00;43.67;33.00
26185;PMS7003;20067;48.764;9.176;2023-10-19T00:26:59;42.33;42.33;32.33
26185;PMS7003;20067;48.764;9.176;2023-10-19T00:29:32;48.33;44.67;33.00
26185;PMS7003;20067;48.764;9.176;2023-10-19T00:32:05;51.00;44.33;33.33
26185;PMS7003;20067;48.764;9.176;2023-10-19T00:34:31;44.33;43.33;33.67
26185;PMS7003;20067;48.764;9.176;2023-10-19T00:36:58;52.00;44.00;34.00
26185;PMS7003;20067;48.764;9.176;2023-10-19T00:39:32;48.33;43.33;33.00
26185;PMS7003;20067;48.764;9.176;2023-10-19T00:42:08;53.00;46.33;35.33
26185;PMS7003;20067;48.764;9.176;2023-10-19T00:44:34;44.33;42.67;32.00
26185;PMS7003;20067;48.764;9.176;2023-10-19T00:47:07;46.67;42.00;31.00
26185;PMS7003;20067;48.764;9.176;2023-10-19T00:49:38;47.00;43.00;33.00
26185;PMS7003;20067;48.764;9.176;2023-10-19T00:52:04;44.33;41.00;31.00
26185;PMS7003;20067;48.764;9.176;2023-10-19T00:54:44;48.33;45.00;34.67
26185;PMS7003;20067;48.764;9.176;2023-10-19T00:57:13;39.33;37.67;28.67
26185;PMS7003;20067;48.764;9.176;2023-10-19T00:59:44;45.67;41.67;30.67
26185;PMS7003;20067;48.764;9.176;2023-10-19T01:02:16;36.67;35.67;28.00
26185;PMS7003;20067;48.764;9.176;2023-10-19T01:05:02;38.50;37.00;30.75
26185;PMS7003;20067;48.764;9.176;2023-10-19T01:07:31;40.00;38.33;31.00
26185;PMS7003;20067;48.764;9.176;2023-10-19T01:10:03;46.33;43.33;33.33
26185;PMS7003;20067;48.764;9.176;2023-10-19T01:12:33;47.67;42.33;33.33
26185;PMS7003;20067;48.764;9.176;2023-10-19T01:15:11;42.00;41.00;32.33
26185;PMS7003;20067;48.764;9.176;2023-10-19T01:17:53;41.00;41.00;32.00
26185;PMS7003;20067;48.764;9.176;2023-10-19T01:20:24;46.00;45.00;34.00
26185;PMS7003;20067;48.764;9.176;2023-10-19T01:22:55;51.33;44.33;34.33
26185;PMS7003;20067;48.764;9.176;2023-10-19T01:28:25;43.00;42.00;33.00
26185;PMS7003;20067;48.764;9.176;2023-10-19T01:31:08;46.00;44.67;34.67
26185;PMS7003;20067;48.764;9.176;2023-10-19T01:33:53;44.33;42.33;32.67
26185;PMS7003;20067;48.764;9.176;2023-10-19T01:36:21;53.00;46.00;35.67
26185;PMS7003;20067;48.764;9.176;2023-10-19T01:38:47;45.33;43.67;33.00
26185;PMS7003;20067;48.764;9.176;2023-10-19T01:41:13;51.00;45.33;36.00
26185;PMS7003;20067;48.764;9.176;2023-10-19T01:43:43;46.00;42.67;33.00
26185;PMS7003;20067;48.764;9.176;2023-10-19T01:46:10;50.00;45.00;35.67
26185;PMS7003;20067;48.764;9.176;2023-10-19T01:48:38;44.00;42.67;32.00
26185;PMS7003;20067;48.764;9.176;2023-10-19T01:51:09;45.67;42.33;33.00
26185;PMS7003;20067;48.764;9.176;2023-10-19T01:53:36;48.33;43.33;33.00
26185;PMS7003;20067;48.764;9.176;2023-10-19T01:56:08;45.33;40.00;32.00
26185;PMS7003;20067;48.764;9.176;2023-10-19T01:58:38;41.00;41.00;32.00
26185;PMS7003;20067;48.764;9.176;2023-10-19T02:01:08;41.33;41.00;32.00
26185;PMS7003;20067;48.764;9.176;2023-10-19T02:03:37;43.67;42.33;33.00
26185;PMS7003;20067;48.764;9.176;2023-10-19T02:06:07;44.67;43.67;32.67
26185;PMS7003;20067;48.764;9.176;2023-10-19T02:08:52;45.33;42.33;32.67
26185;PMS7003;20067;48.764;9.176;2023-10-19T02:11:25;42.00;39.33;30.67
26185;PMS7003;20067;48.764;9.176;2023-10-19T02:13:53;40.33;38.67;30.00
26185;PMS7003;20067;48.764;9.176;2023-10-19T02:16:21;43.00;41.00;32.00
26185;PMS7003;20067;48.764;9.176;2023-10-19T02:18:50;46.00;41.00;32.00
26185;PMS7003;20067;48.764;9.176;2023-10-19T02:21:16;42.67;40.00;32.00
26185;PMS7003;20067;48.764;9.176;2023-10-19T02:23:52;46.67;41.00;32.33
26185;PMS7003;20067;48.764;9.176;2023-10-19T02:26:18;39.00;37.67;30.00
26185;PMS7003;20067;48.764;9.176;2023-10-19T02:28:45;38.67;38.67;30.33
26185;PMS7003;20067;48.764;9.176;2023-10-19T02:31:12;38.67;38.67;29.67
26185;PMS7003;20067;48.764;9.176;2023-10-19T02:33:43;37.00;37.00;29.00
26185;PMS7003;20067;48.764;9.176;2023-10-19T02:36:25;41.33;38.00;30.00
26185;PMS7003;20067;48.764;9.176;2023-10-19T02:38:55;39.00;38.00;30.25
26185;PMS7003;20067;48.764;9.176;2023-10-19T02:41:43;40.75;37.50;30.00
26185;PMS7003;20067;48.764;9.176;2023-10-19T02:44:14;34.50;34.00;27.00
26185;PMS7003;20067;48.764;9.176;2023-10-19T02:46:44;37.50;35.75;27.50
26185;PMS7003;20067;48.764;9.176;2023-10-19T02:49:11;42.50;40.25;31.00
26185;PMS7003;20067;48.764;9.176;2023-10-19T02:51:39;38.75;38.00;29.00
26185;PMS7003;20067;48.764;9.176;2023-10-19T02:54:09;34.25;34.25;27.00
26185;PMS7003;20067;48.764;9.176;2023-10-19T02:56:43;38.00;34.50;27.75
26185;PMS7003;20067;48.764;9.176;2023-10-19T02:59:12;39.00;36.25;29.00
26185;PMS7003;20067;48.764;9.176;2023-10-19T03:01:41;36.50;34.00;27.00
26185;PMS7003;20067;48.764;9.176;2023-10-19T03:04:09;37.25;36.50;29.75
26185;PMS7003;20067;48.764;9.176;2023-10-19T03:06:37;37.25;34.75;27.50
26185;PMS7003;20067;48.764;9.176;2023-10-19T03:09:05;40.25;36.50;28.75
26185;PMS7003;20067;48.764;9.176;2023-10-19T03:11:47;39.00;35.00;27.00
26185;PMS7003;20067;48.764;9.176;2023-10-19T03:14:18;38.75;32.00;26.00
26185;PMS7003;20067;48.764;9.176;2023-10-19T03:16:44;37.25;34.25;27.00
26185;PMS7003;20067;48.764;9.176;2023-10-19T03:19:10;36.00;35.00;27.75
26185;PMS7003;20067;48.764;9.176;2023-10-19T03:21:38;39.33;39.00;30.00
26185;PMS7003;20067;48.764;9.176;2023-10-19T03:24:14;41.50;38.25;30.00
26185;PMS7003;20067;48.764;9.176;2023-10-19T03:26:59;35.75;35.75;27.00
26185;PMS7003;20067;48.764;9.176;2023-10-19T03:29:24;36.25;36.00;29.00
26185;PMS7003;20067;48.764;9.176;2023-10-19T03:32:13;40.33;38.33;28.33
26185;PMS7003;20067;48.764;9.176;2023-10-19T03:34:42;38.50;36.00;27.75
26185;PMS7003;20067;48.764;9.176;2023-10-19T03:37:12;36.25;34.75;28.00
26185;PMS7003;20067;48.764;9.176;2023-10-19T03:39:39;38.33;38.00;29.67
26185;PMS7003;20067;48.764;9.176;2023-10-19T03:42:06;37.25;35.50;29.50
26185;PMS7003;20067;48.764;9.176;2023-10-19T03:44:32;43.67;42.33;32.00
26185;PMS7003;20067;48.764;9.176;2023-10-19T03:47:13;43.33;42.00;34.00
26185;PMS7003;20067;48.764;9.176;2023-10-19T03:49:43;48.00;44.00;34.67
26185;PMS7003;20067;48.764;9.176;2023-10-19T03:52:09;54.00;45.00;34.00
26185;PMS7003;20067;48.764;9.176;2023-10-19T03:54:35;45.67;44.33;34.67
26185;PMS7003;20067;48.764;9.176;2023-10-19T03:57:07;58.33;51.00;40.00
26185;PMS7003;20067;48.764;9.176;2023-10-19T03:59:37;55.00;48.33;38.00
26185;PMS7003;20067;48.764;9.176;2023-10-19T04:02:03;54.33;48.67;38.00
26185;PMS7003;20067;48.764;9.176;2023-10-19T04:04:48;52.67;46.67;37.33
26185;PMS7003;20067;48.764;9.176;2023-10-19T04:07:15;51.67;46.00;36.33
26185;PMS7003;20067;48.764;9.176;2023-10-19T04:12:32;53.33;48.67;38.00
26185;PMS7003;20067;48.764;9.176;2023-10-19T04:15:00;43.33;42.00;33.00
26185;PMS7003;20067;48.764;9.176;2023-10-19T04:17:44;45.33;42.00;32.00
26185;PMS7003;20067;48.764;9.176;2023-10-19T04:20:10;41.67;38.67;31.33
26185;PMS7003;20067;48.764;9.176;2023-10-19T04:22:59;41.67;40.67;31.33
26185;PMS7003;20067;48.764;9.176;2023-10-19T04:25:31;40.50;37.25;29.50
26185;PMS7003;20067;48.764;9.176;2023-10-19T04:27:57;38.25;38.00;29.75
26185;PMS7003;20067;48.764;9.176;2023-10-19T04:30:23;34.50;34.50;27.00
26185;PMS7003;20067;48.764;9.176;2023-10-19T04:32:51;36.00;36.00;28.75
26185;PMS7003;20067;48.764;9.176;2023-10-19T04:35:17;33.50;33.50;28.00
26185;PMS7003;20067;48.764;9.176;2023-10-19T04:37:53;36.25;33.75;27.75
26185;PMS7003;20067;48.764;9.176;2023-10-19T04:40:19;36.00;35.00;28.50
26185;PMS7003;20067;48.764;9.176;2023-10-19T04:42:46;37.50;33.50;28.00
26185;PMS7003;20067;48.764;9.176;2023-10-19T04:45:14;35.75;35.75;28.75
26185;PMS7003;20067;48.764;9.176;2023-10-19T04:47:39;35.00;35.00;27.50
26185;PMS7003;20067;48.764;9.176;2023-10-19T04:50:05;39.75;37.75;30.50
26185;PMS7003;20067;48.764;9.176;2023-10-19T04:52:32;36.00;35.50;28.75
26185;PMS7003;20067;48.764;9.176;2023-10-19T04:54:58;32.00;32.00;26.50
26185;PMS7003;20067;48.764;9.176;2023-10-19T04:57:25;36.67;36.00;29.67
26185;PMS7003;20067;48.764;9.176;2023-10-19T04:59:53;41.00;38.00;31.33
26185;PMS7003;20067;48.764;9.176;2023-10-19T05:02:20;36.75;35.00;27.50
26185;PMS7003;20067;48.764;9.176;2023-10-19T05:04:46;34.75;32.50;27.00
26185;PMS7003;20067;48.764;9.176;2023-10-19T05:07:11;40.67;37.33;30.33
26185;PMS7003;20067;48.764;9.176;2023-10-19T05:09:39;40.00;39.33;29.67
26185;PMS7003;20067;48.764;9.176;2023-10-19T05:12:06;34.50;34.50;28.50
26185;PMS7003;20067;48.764;9.176;2023-10-19T05:14:34;36.33;36.00;29.00
26185;PMS7003;20067;48.764;9.176;2023-10-19T05:17:03;37.00;35.75;28.75
26185;PMS7003;20067;48.764;9.176;2023-10-19T05:19:34;35.50;35.50;28.25
26185;PMS7003;20067;48.764;9.176;2023-10-19T05:22:02;33.25;32.00;27.00
26185;PMS7003;20067;48.764;9.176;2023-10-19T05:24:29;34.00;33.00;27.00
26185;PMS7003;20067;48.764;9.176;2023-10-19T05:26:55;26.25;25.75;21.25
26185;PMS7003;20067;48.764;9.176;2023-10-19T05:29:21;31.50;31.50;25.50
26185;PMS7003;20067;48.764;9.176;2023-10-19T05:31:49;34.00;32.75;27.50
26185;PMS7003;20067;48.764;9.176;2023-10-19T05:34:19;35.50;34.75;27.75
26185;PMS7003;20067;48.764;9.176;2023-10-19T05:36:48;33.50;33.50;27.00
26185;PMS7003;20067;48.764;9.176;2023-10-19T05:39:14;32.75;32.75;27.00
26185;PMS7003;20067;48.764;9.176;2023-10-19T05:41:40;32.50;30.00;26.00
26185;PMS7003;20067;48.764;9.176;2023-10-19T05:44:06;32.50;29.75;24.50
26185;PMS7003;20067;48.764;9.176;2023-10-19T05:46:32;39.00;39.00;30.00
26185;PMS7003;20067;48.764;9.176;2023-10-19T05:48:57;37.00;36.00;29.00
26185;PMS7003;20067;48.764;9.176;2023-10-19T05:51:23;35.75;34.50;27.75
26185;PMS7003;20067;48.764;9.176;2023-10-19T05:53:49;31.75;31.75;26.00
26185;PMS7003;20067;48.764;9.176;2023-10-19T05:56:16;34.25;32.00;27.75
26185;PMS7003;20067;48.764;9.176;2023-10-19T05:58:42;35.00;33.50;26.50
26185;PMS7003;20067;48.764;9.176;2023-10-19T06:01:08;34.25;33.50;26.25
26185;PMS7003;20067;48.764;9.176;2023-10-19T06:03:34;38.50;35.00;27.50
26185;PMS7003;20067;48.764;9.176;2023-10-19T06:05:59;35.50;34.25;27.00
26185;PMS7003;20067;48.764;9.176;2023-10-19T06:08:25;32.75;30.75;25.00
26185;PMS7003;20067;48.764;9.176;2023-10-19T06:10:52;30.25;30.25;22.75
26185;PMS7003;20067;48.764;9.176;2023-10-19T06:13:18;36.25;30.25;23.00
26185;PMS7003;20067;48.764;9.176;2023-10-19T06:15:45;30.50;30.50;24.25
26185;PMS7003;20067;48.764;9.176;2023-10-19T06:18:11;32.00;30.25;26.00
26185;PMS7003;20067;48.764;9.176;2023-10-19T06:20:38;42.00;40.00;29.00
26185;PMS7003;20067;48.764;9.176;2023-10-19T06:23:09;52.75;44.25;32.00
26185;PMS7003;20067;48.764;9.176;2023-10-19T06:25:36;60.67;47.00;33.00
26185;PMS7003;20067;48.764;9.176;2023-10-19T06:28:02;52.67;45.67;33.00
26185;PMS7003;20067;48.764;9.176;2023-10-19T06:30:29;61.33;50.00;35.00
26185;PMS7003;20067;48.764;9.176;2023-10-19T06:32:55;55.33;49.00;36.00
26185;PMS7003;20067;48.764;9.176;2023-10-19T06:35:25;56.67;47.67;35.67
26185;PMS7003;20067;48.764;9.176;2023-10-19T06:37:52;56.00;48.67;36.00
26185;PMS7003;20067;48.764;9.176;2023-10-19T06:40:20;57.00;47.00;35.33
26185;PMS7003;20067;48.764;9.176;2023-10-19T06:42:47;55.33;46.67;33.33
26185;PMS7003;20067;48.764;9.176;2023-10-19T06:45:13;53.33;45.67;33.33
26185;PMS7003;20067;48.764;9.176;2023-10-19T06:47:43;57.33;46.33;33.00
26185;PMS7003;20067;48.764;9.176;2023-10-19T06:50:11;54.67;47.67;33.33
26185;PMS7003;20067;48.764;9.176;2023-10-19T06:52:40;57.33;49.33;36.00
26185;PMS7003;20067;48.764;9.176;2023-10-19T06:55:08;59.33;48.00;32.33
26185;PMS7003;20067;48.764;9.176;2023-10-19T06:58:00;59.00;50.00;35.67
26185;PMS7003;20067;48.764;9.176;2023-10-19T07:00:26;53.00;49.00;33.00
26185;PMS7003;20067;48.764;9.176;2023-10-19T07:02:52;62.67;52.67;37.33
26185;PMS7003;20067;48.764;9.176;2023-10-19T07:05:20;57.33;49.67;36.00
26185;PMS7003;20067;48.764;9.176;2023-10-19T07:07:55;58.67;50.00;36.00
26185;PMS7003;20067;48.764;9.176;2023-10-19T07:10:21;58.67;49.00;36.00
26185;PMS7003;20067;48.764;9.176;2023-10-19T07:12:50;57.00;48.00;35.67
26185;PMS7003;20067;48.764;9.176;2023-10-19T07:15:18;60.67;49.00;33.33
26185;PMS7003;20067;48.764;9.176;2023-10-19T07:17:45;53.33;46.67;35.33
26185;PMS7003;20067;48.764;9.176;2023-10-19T07:20:13;50.33;46.00;32.67
26185;PMS7003;20067;48.764;9.176;2023-10-19T07:23:05;56.00;49.00;36.00
26185;PMS7003;20067;48.764;9.176;2023-10-19T07:25:46;58.33;50.00;36.33
26185;PMS7003;20067;48.764;9.176;2023-10-19T07:28:13;50.33;46.00;33.00
26185;PMS7003;20067;48.764;9.176;2023-10-19T07:30:43;50.67;46.00;32.67
26185;PMS7003;20067;48.764;9.176;2023-10-19T07:33:09;57.67;49.00;34.67
26185;PMS7003;20067;48.764;9.176;2023-10-19T07:35:41;64.00;51.33;37.67
26185;PMS7003;20067;48.764;9.176;2023-10-19T07:38:09;62.67;52.67;39.00
26185;PMS7003;20067;48.764;9.176;2023-10-19T07:40:35;64.67;53.67;39.33
26185;PMS7003;20067;48.764;9.176;2023-10-19T07:43:01;61.00;52.00;39.00
26185;PMS7003;20067;48.764;9.176;2023-10-19T07:45:28;65.00;52.00;37.00
26185;PMS7003;20067;48.764;9.176;2023-10-19T07:50:24;63.33;50.33;37.00
26185;PMS7003;20067;48.764;9.176;2023-10-19T07:52:50;55.67;47.33;34.67
26185;PMS7003;20067;48.764;9.176;2023-10-19T07:55:17;54.33;46.00;34.33
26185;PMS7003;20067;48.764;9.176;2023-10-19T07:57:44;52.33;46.67;33.67
26185;PMS7003;20067;48.764;9.176;2023-10-19T08:00:10;56.33;46.67;35.00
26185;PMS7003;20067;48.764;9.176;2023-10-19T08:02:40;51.67;44.33;32.00
26185;PMS7003;20067;48.764;9.176;2023-10-19T08:05:11;48.00;43.67;32.00
26185;PMS7003;20067;48.764;9.176;2023-10-19T08:07:37;44.00;40.00;29.00
26185;PMS7003;20067;48.764;9.176;2023-10-19T08:10:05;44.50;40.25;28.75
26185;PMS7003;20067;48.764;9.176;2023-10-19T08:12:34;42.00;37.50;26.75
26185;PMS7003;20067;48.764;9.176;2023-10-19T08:15:00;47.00;41.25;29.50
26185;PMS7003;20067;48.764;9.176;2023-10-19T08:17:27;37.00;36.50;26.50
26185;PMS7003;20067;48.764;9.176;2023-10-19T08:19:52;37.75;36.50;25.50
26185;PMS7003;20067;48.764;9.176;2023-10-19T08:22:18;44.00;39.75;27.75
26185;PMS7003;20067;48.764;9.176;2023-10-19T08:24:44;39.25;37.50;26.00
26185;PMS7003;20067;48.764;9.176;2023-10-19T08:27:11;34.25;31.25;22.75
26185;PMS7003;20067;48.764;9.176;2023-10-19T08:29:38;40.75;34.00;22.25
26185;PMS7003;20067;48.764;9.176;2023-10-19T08:32:03;36.50;32.50;23.00
26185;PMS7003;20067;48.764;9.176;2023-10-19T08:34:29;31.50;29.50;21.00
26185;PMS7003;20067;48.764;9.176;2023-10-19T08:37:05;32.25;30.75;19.50
26185;PMS7003;20067;48.764;9.176;2023-10-19T08:39:31;34.25;33.25;21.00
26185;PMS7003;20067;48.764;9.176;2023-10-19T08:42:04;32.50;29.25;20.25
26185;PMS7003;20067;48.764;9.176;2023-10-19T08:44:31;35.75;29.25;20.00
26185;PMS7003;20067;48.764;9.176;2023-10-19T08:46:57;32.25;28.25;18.00
26185;PMS7003;20067;48.764;9.176;2023-10-19T08:49:24;33.50;27.50;18.00
26185;PMS7003;20067;48.764;9.176;2023-10-19T08:51:54;31.25;28.00;18.00
26185;PMS7003;20067;48.764;9.176;2023-10-19T08:54:21;34.75;28.75;18.75
26185;PMS7003;20067;48.764;9.176;2023-10-19T08:56:46;34.50;33.00;22.00
26185;PMS7003;20067;48.764;9.176;2023-10-19T08:59:15;29.75;23.25;16.00
26185;PMS7003;20067;48.764;9.176;2023-10-19T09:01:41;30.75;24.00;16.50
26185;PMS7003;20067;48.764;9.176;2023-10-19T09:04:11;27.00;25.50;17.00
26185;PMS7003;20067;48.764;9.176;2023-10-19T09:06:38;22.00;21.75;14.25
26185;PMS7003;20067;48.764;9.176;2023-10-19T09:09:07;20.50;17.25;9.00
26185;PMS7003;20067;48.764;9.176;2023-10-19T09:11:34;24.25;19.50;12.25
26185;PMS7003;20067;48.764;9.176;2023-10-19T09:14:00;15.00;14.25;8.25
26185;PMS7003;20067;48.764;9.176;2023-10-19T09:16:28;17.00;14.00;8.25
26185;PMS7003;20067;48.764;9.176;2023-10-19T09:18:55;12.25;11.25;6.00
26185;PMS7003;20067;48.764;9.176;2023-10-19T09:21:22;14.00;12.00;6.75
26185;PMS7003;20067;48.764;9.176;2023-10-19T09:23:51;13.50;11.25;7.00
26185;PMS7003;20067;48.764;9.176;2023-10-19T09:26:18;12.25;12.25;7.00
26185;PMS7003;20067;48.764;9.176;2023-10-19T09:28:46;17.25;14.50;8.00
26185;PMS7003;20067;48.764;9.176;2023-10-19T09:31:15;14.00;13.75;7.50
26185;PMS7003;20067;48.764;9.176;2023-10-19T09:33:42;10.25;9.00;4.00
26185;PMS7003;20067;48.764;9.176;2023-10-19T09:36:13;11.25;9.75;6.00
26185;PMS7003;20067;48.764;9.176;2023-10-19T09:38:39;8.00;8.00;3.25
26185;PMS7003;20067;48.764;9.176;2023-10-19T09:41:11;11.75;10.00;4.75
26185;PMS7003;20067;48.764;9.176;2023-10-19T09:43:39;9.25;8.00;3.25
26185;PMS7003;20067;48.764;9.176;2023-10-19T09:46:11;8.25;7.25;4.00
26185;PMS7003;20067;48.764;9.176;2023-10-19T09:48:39;11.00;11.00;6.50
26185;PMS7003;20067;48.764;9.176;2023-10-19T09:51:11;11.50;10.50;5.00
26185;PMS7003;20067;48.764;9.176;2023-10-19T09:53:40;8.50;7.50;3.75
26185;PMS7003;20067;48.764;9.176;2023-10-19T09:56:32;8.50;8.25;5.50
26185;PMS7003;20067;48.764;9.176;2023-10-19T09:59:02;8.50;8.50;4.00
26185;PMS7003;20067;48.764;9.176;2023-10-19T10:04:33;7.50;7.50;3.75
26185;PMS7003;20067;48.764;9.176;2023-10-19T10:07:02;7.00;7.00;3.25
26185;PMS7003;20067;48.764;9.176;2023-10-19T10:09:31;9.00;9.00;6.00
26185;PMS7003;20067;48.764;9.176;2023-10-19T10:14:56;9.50;8.50;5.00
26185;PMS7003;20067;48.764;9.176;2023-10-19T10:17:23;7.25;7.25;3.00
26185;PMS7003;20067;48.764;9.176;2023-10-19T10:19:52;10.50;10.50;4.75
26185;PMS7003;20067;48.764;9.176;2023-10-19T10:22:21;11.25;11.25;6.00
26185;PMS7003;20067;48.764;9.176;2023-10-19T10:24:47;10.00;10.00;5.50
26185;PMS7003;20067;48.764;9.176;2023-10-19T10:27:18;12.50;10.00;5.00
26185;PMS7003;20067;48.764;9.176;2023-10-19T10:29:57;13.00;12.75;7.75
26185;PMS7003;20067;48.764;9.176;2023-10-19T10:35:08;14.00;10.50;5.25
26185;PMS7003;20067;48.764;9.176;2023-10-19T10:37:36;10.00;10.00;6.00
26185;PMS7003;20067;48.764;9.176;2023-10-19T10:40:02;12.00;11.25;6.75
26185;PMS7003;20067;48.764;9.176;2023-10-19T10:42:30;11.00;11.00;5.25
26185;PMS7003;20067;48.764;9.176;2023-10-19T10:44:56;10.00;10.00;4.00
26185;PMS7003;20067;48.764;9.176;2023-10-19T10:47:23;11.50;10.25;6.00
26185;PMS7003;20067;48.764;9.176;2023-10-19T10:52:31;12.00;11.00;5.50
26185;PMS7003;20067;48.764;9.176;2023-10-19T10:54:59;11.50;10.50;5.50
26185;PMS7003;20067;48.764;9.176;2023-10-19T10:57:31;11.25;10.50;6.00
26185;PMS7003;20067;48.764;9.176;2023-10-19T11:00:04;13.50;13.50;7.00
26185;PMS7003;20067;48.764;9.176;2023-10-19T11:02:41;10.00;9.50;5.50
26185;PMS7003;20067;48.764;9.176;2023-10-19T11:05:08;15.25;14.00;7.25
26185;PMS7003;20067;48.764;9.176;2023-10-19T11:07:37;18.00;15.50;10.25
26185;PMS7003;20067;48.764;9.176;2023-10-19T11:10:07;15.50;15.50;9.50
26185;PMS7003;20067;48.764;9.176;2023-10-19T11:12:35;18.50;15.25;10.00
26185;PMS7003;20067;48.764;9.176;2023-10-19T11:15:01;18.00;17.00;10.50
26185;PMS7003;20067;48.764;9.176;2023-10-19T11:17:41;24.50;22.50;17.00
26185;PMS7003;20067;48.764;9.176;2023-10-19T11:20:08;28.00;27.00;22.25
26185;PMS7003;20067;48.764;9.176;2023-10-19T11:22:44;28.75;26.50;22.00
26185;PMS7003;20067;48.764;9.176;2023-10-19T11:25:17;28.00;27.00;22.75
26185;PMS7003;20067;48.764;9.176;2023-10-19T11:27:44;29.25;29.25;23.50
26185;PMS7003;20067;48.764;9.176;2023-10-19T11:30:09;33.50;32.00;26.75
26185;PMS7003;20067;48.764;9.176;2023-10-19T11:32:37;34.75;32.50;26.00
26185;PMS7003;20067;48.764;9.176;2023-10-19T11:35:05;27.50;27.50;22.00
26185;PMS7003;20067;48.764;9.176;2023-10-19T11:37:53;30.25;30.00;23.75
26185;PMS7003;20067;48.764;9.176;2023-10-19T11:40:22;26.75;26.75;23.00
26185;PMS7003;20067;48.764;9.176;2023-10-19T11:42:49;28.00;28.00;23.50
26185;PMS7003;20067;48.764;9.176;2023-10-19T11:45:15;29.25;29.25;24.75
26185;PMS7003;20067;48.764;9.176;2023-10-19T11:47:45;32.50;32.50;27.25
26185;PMS7003;20067;48.764;9.176;2023-10-19T11:50:11;34.75;32.75;28.50
26185;PMS7003;20067;48.764;9.176;2023-10-19T11:52:43;35.00;34.75;28.50
26185;PMS7003;20067;48.764;9.176;2023-10-19T11:55:12;34.25;33.75;28.00
26185;PMS7003;20067;48.764;9.176;2023-10-19T11:57:39;31.00;29.50;25.50
26185;PMS7003;20067;48.764;9.176;2023-10-19T12:00:06;32.75;32.75;26.00
26185;PMS7003;20067;48.764;9.176;2023-10-19T12:02:34;35.75;34.00;28.50
26185;PMS7003;20067;48.764;9.176;2023-10-19T12:05:02;30.50;30.00;24.00
26185;PMS7003;20067;48.764;9.176;2023-10-19T12:07:29;37.25;34.50;28.00
26185;PMS7003;20067;48.764;9.176;2023-10-19T12:12:40;32.00;30.00;25.25
26185;PMS7003;20067;48.764;9.176;2023-10-19T12:15:06;31.50;30.75;26.00
26185;PMS7003;20067;48.764;9.176;2023-10-19T12:17:32;30.00;29.50;25.75
26185;PMS7003;20067;48.764;9.176;2023-10-19T12:19:58;24.00;24.00;19.50
26185;PMS7003;20067;48.764;9.176;2023-10-19T12:22:24;21.00;21.00;18.00
26185;PMS7003;20067;48.764;9.176;2023-10-19T12:24:53;23.50;23.50;19.75
26185;PMS7003;20067;48.764;9.176;2023-10-19T12:27:20;23.50;23.50;20.25
26185;PMS7003;20067;48.764;9.176;2023-10-19T12:29:45;36.50;35.50;28.00
26185;PMS7003;20067;48.764;9.176;2023-10-19T12:32:12;35.25;35.25;28.00
26185;PMS7003;20067;48.764;9.176;2023-10-19T12:34:39;34.00;33.00;28.00
26185;PMS7003;20067;48.764;9.176;2023-10-19T12:37:06;35.50;35.00;28.25
26185;PMS7003;20067;48.764;9.176;2023-10-19T12:39:33;40.00;37.00;30.00
26185;PMS7003;20067;48.764;9.176;2023-10-19T12:42:07;38.00;38.00;30.00
26185;PMS7003;20067;48.764;9.176;2023-10-19T12:44:33;33.75;33.75;26.75
26185;PMS7003;20067;48.764;9.176;2023-10-19T12:47:04;37.50;35.75;28.00
26185;PMS7003;20067;48.764;9.176;2023-10-19T12:49:41;37.00;35.67;28.67
26185;PMS7003;20067;48.764;9.176;2023-10-19T12:52:08;39.33;36.00;28.33
26185;PMS7003;20067;48.764;9.176;2023-10-19T12:54:35;39.75;38.00;29.25
26185;PMS7003;20067;48.764;9.176;2023-10-19T12:57:01;35.75;35.75;28.50
26185;PMS7003;20067;48.764;9.176;2023-10-19T12:59:35;38.33;37.00;29.00
26185;PMS7003;20067;48.764;9.176;2023-10-19T13:02:07;38.33;38.00;31.00
26185;PMS7003;20067;48.764;9.176;2023-10-19T13:04:33;39.50;37.75;29.75
26185;PMS7003;20067;48.764;9.176;2023-10-19T13:06:59;39.75;38.25;29.50
26185;PMS7003;20067;48.764;9.176;2023-10-19T13:09:27;39.75;38.00;30.50
26185;PMS7003;20067;48.764;9.176;2023-10-19T13:11:59;38.25;38.25;30.00
26185;PMS7003;20067;48.764;9.176;2023-10-19T13:14:25;38.67;38.67;30.00
26185;PMS7003;20067;48.764;9.176;2023-10-19T13:16:52;39.33;39.00;30.67
26185;PMS7003;20067;48.764;9.176;2023-10-19T13:19:19;40.67;39.33;31.00
26185;PMS7003;20067;48.764;9.176;2023-10-19T13:21:51;40.00;39.00;30.00
26185;PMS7003;20067;48.764;9.176;2023-10-19T13:24:17;44.33;41.00;31.00
26185;PMS7003;20067;48.764;9.176;2023-10-19T13:26:45;44.33;40.33;31.00
26185;PMS7003;20067;48.764;9.176;2023-10-19T13:29:12;42.25;39.75;30.00
26185;PMS7003;20067;48.764;9.176;2023-10-19T13:31:39;39.33;37.00;29.00
26185;PMS7003;20067;48.764;9.176;2023-10-19T13:34:05;41.00;38.00;29.00
26185;PMS7003;20067;48.764;9.176;2023-10-19T13:36:35;44.00;41.00;31.33
26185;PMS7003;20067;48.764;9.176;2023-10-19T13:39:01;42.00;39.67;30.67
26185;PMS7003;20067;48.764;9.176;2023-10-19T13:41:28;37.50;37.00;28.00
26185;PMS7003;20067;48.764;9.176;2023-10-19T13:43:54;35.00;35.00;28.75
26185;PMS7003;20067;48.764;9.176;2023-10-19T13:46:20;37.75;37.75;30.00
26185;PMS7003;20067;48.764;9.176;2023-10-19T13:48:48;43.33;40.00;31.00
26185;PMS7003;20067;48.764;9.176;2023-10-19T13:51:15;38.00;36.33;28.33
26185;PMS7003;20067;48.764;9.176;2023-10-19T13:53:44;37.00;37.00;29.33
26185;PMS7003;20067;48.764;9.176;2023-10-19T13:56:10;46.00;41.67;32.00
26185;PMS7003;20067;48.764;9.176;2023-10-19T13:58:37;45.00;40.75;30.50
26185;PMS7003;20067;48.764;9.176;2023-10-19T14:01:06;51.67;45.00;33.33
26185;PMS7003;20067;48.764;9.176;2023-10-19T14:03:33;44.00;41.00;32.00
26185;PMS7003;20067;48.764;9.176;2023-10-19T14:05:59;45.00;41.00;30.00
26185;PMS7003;20067;48.764;9.176;2023-10-19T14:08:28;38.75;37.50;28.00
26185;PMS7003;20067;48.764;9.176;2023-10-19T14:11:04;41.75;39.00;30.50
26185;PMS7003;20067;48.764;9.176;2023-10-19T14:13:31;37.50;37.00;28.75
26185;PMS7003;20067;48.764;9.176;2023-10-19T14:15:57;42.25;37.25;28.75
26185;PMS7003;20067;48.764;9.176;2023-10-19T14:18:22;44.67;41.00;31.00
26185;PMS7003;20067;48.764;9.176;2023-10-19T14:20:48;40.75;38.50;28.50
26185;PMS7003;20067;48.764;9.176;2023-10-19T14:23:14;38.25;35.50;28.00